Time;durP1;ratioP1;P1;durP2;ratioP2;P2;SDS_P1;SDS_P2;PMS_P1;PMS_P2;Temp;Humidity;BMP_temperature;BMP_pressure;BME280_temperature;BME280_humidity;BME280_pressure;Samples;Min_cycle;Max_cycle;Signal;HPM_P1;HPM_P2
2023/11/26 00:00:06;;;;;;;8.30;3.22;;;;;;;3.24;100.00;101016.00;6106233;23;20453;-68
2023/11/26 00:02:32;;;;;;;5.53;5.00;;;;;;;3.28;100.00;101028.03;6073939;23;20045;-69
2023/11/26 00:04:59;;;;;;;8.40;5.78;;;;;;;2.70;100.00;100929.56;6104470;23;20033;-68
2023/11/26 00:07:26;;;;;;;3.90;3.70;;;;;;;3.18;100.00;101015.19;6080930;23;20021;-69
2023/11/26 00:09:52;;;;;;;8.77;4.32;;;;;;;3.20;100.00;101021.22;6083970;23;20362;-69
2023/11/26 00:12:18;;;;;;;3.80;3.60;;;;;;;2.84;100.00;100965.63;6081461;23;20177;-69
2023/11/26 00:14:45;;;;;;;5.85;5.28;;;;;;;3.03;100.00;101002.50;6101560;23;20041;-69
2023/11/26 00:17:11;;;;;;;3.65;3.50;;;;;;;3.28;100.00;101034.06;6084998;23;20025;-69
2023/11/26 00:19:38;;;;;;;4.00;3.80;;;;;;;3.24;100.00;101034.16;6102676;23;20083;-68
2023/11/26 00:22:05;;;;;;;4.15;3.95;;;;;;;3.27;100.00;101039.28;6080734;23;20041;-68
2023/11/26 00:24:32;;;;;;;5.22;4.22;;;;;;;3.18;100.00;101028.16;6106778;23;20032;-68
2023/11/26 00:26:58;;;;;;;4.35;3.95;;;;;;;3.25;100.00;101031.53;6101494;23;20033;-69
2023/11/26 00:29:25;;;;;;;4.80;4.50;;;;;;;3.19;100.00;100998.78;6107656;23;20034;-68
2023/11/26 00:31:52;;;;;;;4.00;3.55;;;;;;;3.33;100.00;101031.41;6102307;23;20014;-69
2023/11/26 00:34:18;;;;;;;3.88;3.67;;;;;;;3.29;100.00;101025.41;6109226;23;20116;-69
2023/11/26 00:36:46;;;;;;;6.40;5.88;;;;;;;3.27;100.00;101023.72;6085314;23;20143;-69
2023/11/26 00:39:16;;;;;;;5.65;4.78;;;;;;;2.89;100.00;100968.19;6105982;23;20029;-70
2023/11/26 00:41:44;;;;;;;3.60;3.40;;;;;;;3.23;100.00;101027.25;6110437;23;20049;-70
2023/11/26 00:44:11;;;;;;;3.60;3.47;;;;;;;2.72;100.00;100953.72;6106389;23;20159;-70
2023/11/26 00:46:37;;;;;;;3.50;3.40;;;;;;;2.63;100.00;100919.34;6107376;23;20062;-69
2023/11/26 00:49:06;;;;;;;3.50;3.30;;;;;;;3.26;100.00;101030.63;6084061;23;20033;-70
2023/11/26 00:51:32;;;;;;;4.47;4.28;;;;;;;3.12;100.00;101010.13;6111633;23;20346;-70
2023/11/26 00:53:59;;;;;;;3.92;3.72;;;;;;;3.15;100.00;101020.47;6111469;23;20025;-71
2023/11/26 00:56:26;;;;;;;7.10;3.90;;;;;;;3.33;100.00;101046.97;6055181;23;20286;-70
2023/11/26 00:58:52;;;;;;;5.20;4.85;;;;;;;3.29;100.00;101053.09;6106106;23;20064;-70
2023/11/26 01:01:19;;;;;;;4.88;4.57;;;;;;;3.29;100.00;101064.31;6103578;23;20083;-70
2023/11/26 01:03:45;;;;;;;3.10;3.00;;;;;;;3.26;100.00;101051.38;6107733;23;20595;-70
2023/11/26 01:06:12;;;;;;;3.47;3.28;;;;;;;3.13;100.00;101037.78;6082937;23;20451;-70
2023/11/26 01:08:38;;;;;;;3.97;3.70;;;;;;;3.33;100.00;101068.59;6076160;23;20049;-70
2023/11/26 01:11:09;;;;;;;3.58;3.38;;;;;;;3.28;100.00;101053.97;6110102;23;20033;-70
2023/11/26 01:13:35;;;;;;;3.53;3.38;;;;;;;3.39;100.00;101086.63;6106858;23;20028;-68
2023/11/26 01:16:03;;;;;;;4.03;3.83;;;;;;;3.33;100.00;101065.13;6060844;23;20036;-69
2023/11/26 01:18:29;;;;;;;4.13;3.92;;;;;;;3.41;100.00;101073.66;6112831;23;20096;-69
2023/11/26 01:20:57;;;;;;;6.05;5.40;;;;;;;3.09;100.00;101024.91;6070081;23;20018;-68
2023/11/26 01:23:23;;;;;;;4.45;4.10;;;;;;;2.80;100.00;100982.13;6112125;23;20416;-68
2023/11/26 01:25:50;;;;;;;4.03;3.75;;;;;;;3.33;100.00;101065.13;6105778;23;20518;-69
2023/11/26 01:28:19;;;;;;;4.35;4.15;;;;;;;3.14;100.00;101054.19;6091483;23;20048;-68
2023/11/26 01:30:45;;;;;;;5.43;5.13;;;;;;;3.08;100.00;101044.75;6106775;23;20096;-68
2023/11/26 01:33:12;;;;;;;3.78;3.58;;;;;;;2.71;100.00;101014.22;6086446;23;20030;-68
2023/11/26 01:35:38;;;;;;;4.60;4.18;;;;;;;2.87;100.00;101047.69;6110717;23;20041;-68
2023/11/26 01:38:05;;;;;;;3.55;3.30;;;;;;;2.93;100.00;101053.63;6085724;23;20032;-68
2023/11/26 01:40:38;;;;;;;3.22;3.13;;;;;;;2.82;100.00;101058.13;6110266;23;21610;-69
2023/11/26 01:43:05;;;;;;;4.15;3.95;;;;;;;2.64;100.00;101022.09;6081971;23;20100;-68
2023/11/26 01:45:32;;;;;;;3.25;3.10;;;;;;;2.75;100.00;101062.53;6105338;23;20040;-69
2023/11/26 01:47:58;;;;;;;3.30;3.20;;;;;;;2.56;100.00;101040.34;6105230;23;20045;-69
2023/11/26 01:50:26;;;;;;;3.53;3.40;;;;;;;2.59;100.00;101048.09;6079913;23;20026;-69
2023/11/26 01:52:54;;;;;;;6.35;4.90;;;;;;;2.64;100.00;101067.00;6109463;23;20043;-69
2023/11/26 01:55:23;;;;;;;4.10;3.80;;;;;;;2.22;100.00;101006.25;6101587;23;20048;-69
2023/11/26 01:57:50;;;;;;;7.15;4.03;;;;;;;2.71;100.00;101080.75;6093334;23;21774;-69
2023/11/26 02:00:19;;;;;;;3.72;3.53;;;;;;;2.65;100.00;101079.09;6108865;23;20428;-68
2023/11/26 02:02:47;;;;;;;4.25;4.05;;;;;;;2.55;100.00;101080.09;6079983;23;20024;-69
2023/11/26 02:05:13;;;;;;;4.07;3.88;;;;;;;2.53;100.00;101080.09;6087295;23;20033;-69
2023/11/26 02:07:41;;;;;;;4.13;3.83;;;;;;;2.48;100.00;101076.72;6085606;23;20158;-68
2023/11/26 02:10:08;;;;;;;3.53;3.33;;;;;;;2.56;100.00;101082.66;6108995;23;20037;-69
2023/11/26 02:12:35;;;;;;;4.13;3.92;;;;;;;2.13;100.00;101015.88;6107882;23;20097;-68
2023/11/26 02:15:02;;;;;;;4.20;4.00;;;;;;;2.58;100.00;101093.00;6106903;23;20079;-69
2023/11/26 02:17:30;;;;;;;3.95;3.75;;;;;;;2.64;100.00;101103.28;6084232;23;20036;-69
2023/11/26 02:20:03;;;;;;;3.67;3.45;;;;;;;2.71;100.00;101107.53;6107692;23;20024;-69
2023/11/26 02:22:30;;;;;;;3.67;3.47;;;;;;;2.27;100.00;101030.38;6084230;23;20194;-68
2023/11/26 02:24:59;;;;;;;6.88;4.97;;;;;;;2.82;100.00;101119.47;6104760;23;20370;-68
2023/11/26 02:27:26;;;;;;;3.30;3.20;;;;;;;2.82;100.00;101146.25;6105250;23;20029;-69
2023/11/26 02:29:52;;;;;;;3.30;3.20;;;;;;;2.77;100.00;101125.56;6082145;23;20472;-68
2023/11/26 02:32:19;;;;;;;4.38;4.07;;;;;;;2.32;100.00;101049.28;6105285;23;20029;-68
2023/11/26 02:34:45;;;;;;;5.13;4.90;;;;;;;2.64;100.00;101115.38;6090470;23;20408;-69
2023/11/26 02:37:12;;;;;;;3.53;3.33;;;;;;;2.26;100.00;101057.97;6103889;23;20029;-68
2023/11/26 02:39:38;;;;;;;3.35;3.15;;;;;;;1.89;100.00;101001.47;6107951;23;20500;-69
2023/11/26 02:42:05;;;;;;;4.93;4.47;;;;;;;2.60;100.00;101118.00;6108837;23;20021;-69
2023/11/26 02:44:31;;;;;;;3.90;3.70;;;;;;;2.59;100.00;101123.22;6104193;23;20032;-69
2023/11/26 02:46:58;;;;;;;4.40;4.10;;;;;;;2.52;100.00;101127.59;6089299;23;20169;-67
2023/11/26 02:49:24;;;;;;;5.88;5.30;;;;;;;2.48;100.00;101125.06;6105408;23;20473;-70
2023/11/26 02:51:50;;;;;;;3.47;3.28;;;;;;;2.40;100.00;101123.41;6091142;23;20369;-69
2023/11/26 02:54:17;;;;;;;4.18;3.88;;;;;;;2.18;100.00;101103.81;6110548;23;20026;-69
2023/11/26 02:56:43;;;;;;;5.20;4.97;;;;;;;1.87;100.00;101070.50;6076892;23;20491;-68
2023/11/26 02:59:11;;;;;;;5.35;4.93;;;;;;;2.18;100.00;101121.94;6110216;23;20041;-69
2023/11/26 03:01:38;;;;;;;4.75;4.10;;;;;;;2.06;100.00;101117.75;6104925;23;20079;-68
2023/11/26 03:04:09;;;;;;;3.83;3.63;;;;;;;1.90;100.00;101103.25;6088656;23;20018;-68
2023/11/26 03:06:36;;;;;;;5.90;5.40;;;;;;;1.97;100.00;101129.06;6108899;23;20039;-68
2023/11/26 03:09:19;;;;;;;4.57;4.30;;;;;;;1.44;100.00;101059.72;6081519;23;20419;-69
2023/11/26 03:14:31;;;;;;;3.83;3.63;;;;;;;1.63;100.00;101138.03;6098769;23;20033;-69
2023/11/26 03:16:58;;;;;;;4.57;4.38;;;;;;;1.19;100.00;101073.69;6105929;23;20263;-69
2023/11/26 03:19:24;;;;;;;4.03;3.65;;;;;;;1.24;100.00;101078.81;6101720;23;20126;-69
2023/11/26 03:21:53;;;;;;;3.80;3.60;;;;;;;1.53;100.00;101130.31;6106006;23;20023;-70
2023/11/26 03:24:19;;;;;;;3.95;3.75;;;;;;;1.45;100.00;101124.34;6085533;23;20319;-70
2023/11/26 03:26:45;;;;;;;9.18;6.00;;;;;;;1.40;100.00;101131.28;6102071;23;20045;-70
2023/11/26 03:29:12;;;;;;;4.15;3.78;;;;;;;1.33;100.00;101130.47;6106240;23;20103;-70
2023/11/26 03:31:40;;;;;;;3.72;3.53;;;;;;;0.94;100.00;101080.78;6102510;23;21998;-70
2023/11/26 03:34:09;;;;;;;4.30;4.07;;;;;;;0.89;100.00;101081.66;6109526;23;20049;-71
2023/11/26 03:36:41;;;;;;;4.22;3.97;;;;;;;1.16;100.00;101138.34;6080184;23;20299;-68
2023/11/26 03:39:07;;;;;;;5.57;5.15;;;;;;;0.98;100.00;101121.22;6070529;23;20406;-68
2023/11/26 03:41:34;;;;;;;4.10;3.88;;;;;;;1.07;100.00;101143.56;6105658;23;20306;-68
2023/11/26 03:44:00;;;;;;;3.65;3.45;;;;;;;1.03;100.00;101147.03;6102873;23;20333;-68
2023/11/26 03:46:29;;;;;;;4.55;4.25;;;;;;;1.01;100.00;101151.38;6081213;23;20274;-70
2023/11/26 03:48:56;;;;;;;4.38;4.18;;;;;;;0.98;100.00;101148.78;6103016;23;20029;-68
2023/11/26 03:51:23;;;;;;;4.45;4.18;;;;;;;0.93;100.00;101147.97;6086515;23;20256;-70
2023/11/26 03:53:49;;;;;;;3.45;3.25;;;;;;;0.86;100.00;101152.28;6106358;23;20033;-70
2023/11/26 03:56:16;;;;;;;3.72;3.53;;;;;;;0.70;100.00;101127.38;6083426;23;20077;-68
2023/11/26 03:58:42;;;;;;;4.60;4.40;;;;;;;0.84;100.00;101156.59;6105364;23;20358;-71
2023/11/26 04:01:09;;;;;;;3.50;3.30;;;;;;;0.28;100.00;101073.38;6081009;23;20797;-68
2023/11/26 04:03:36;;;;;;;3.65;3.50;;;;;;;0.41;100.00;101087.06;6107752;23;20177;-68
2023/11/26 04:06:02;;;;;;;3.95;3.75;;;;;;;0.78;100.00;101148.88;6082913;23;20097;-68
2023/11/26 04:08:28;;;;;;;3.13;3.03;;;;;;;0.87;100.00;101159.19;6099131;23;20087;-68
2023/11/26 04:10:55;;;;;;;4.70;4.50;;;;;;;0.93;100.00;101163.47;6084173;23;20832;-68
2023/11/26 04:13:22;;;;;;;3.25;3.15;;;;;;;1.02;100.00;101163.41;6102816;23;20025;-69
2023/11/26 04:15:55;;;;;;;3.70;3.50;;;;;;;1.08;100.00;101178.03;6085754;23;20354;-70
2023/11/26 04:18:22;;;;;;;3.78;3.58;;;;;;;0.41;100.00;101068.16;6102624;23;20086;-68
2023/11/26 04:20:48;;;;;;;5.65;5.22;;;;;;;0.54;100.00;101078.41;6075400;23;20022;-69
2023/11/26 04:23:15;;;;;;;3.75;3.55;;;;;;;1.17;100.00;101168.50;6104715;23;20026;-68
2023/11/26 04:25:42;;;;;;;3.83;3.65;;;;;;;1.22;100.00;101170.19;6100690;23;20297;-68
2023/11/26 04:28:08;;;;;;;3.53;3.42;;;;;;;0.99;100.00;101128.09;6081919;23;20022;-69
2023/11/26 04:30:34;;;;;;;3.38;3.20;;;;;;;1.29;100.00;101180.50;6107582;23;20030;-70
2023/11/26 04:33:02;;;;;;;3.72;3.53;;;;;;;1.32;100.00;101183.06;6101300;23;20452;-69
2023/11/26 04:35:29;;;;;;;4.53;4.10;;;;;;;0.90;100.00;101110.09;6082527;23;20036;-69
2023/11/26 04:37:56;;;;;;;8.38;4.03;;;;;;;0.92;100.00;101102.31;6101567;23;20181;-68
2023/11/26 04:40:23;;;;;;;5.28;4.85;;;;;;;0.71;100.00;101067.13;6087502;23;20557;-68
2023/11/26 04:42:50;;;;;;;5.15;4.95;;;;;;;1.13;100.00;101130.59;6098473;23;20031;-69
2023/11/26 04:45:17;;;;;;;6.88;4.93;;;;;;;1.52;100.00;101195.00;6083481;23;20081;-69
2023/11/26 04:47:43;;;;;;;4.18;3.97;;;;;;;1.51;100.00;101183.78;6105962;23;20196;-68
2023/11/26 04:50:10;;;;;;;3.70;3.50;;;;;;;0.99;100.00;101099.69;6082486;23;20074;-71
2023/11/26 04:52:36;;;;;;;4.35;4.13;;;;;;;0.27;100.00;100981.28;6105154;23;20025;-68
2023/11/26 04:55:03;;;;;;;3.90;3.60;;;;;;;1.51;100.00;101195.88;6076275;23;20084;-69
2023/11/26 04:57:30;;;;;;;9.30;4.53;;;;;;;1.03;100.00;101107.44;6079752;23;20305;-70
2023/11/26 04:59:56;;;;;;;11.88;4.90;;;;;;;1.54;100.00;101196.72;6078015;23;20022;-69
2023/11/26 05:02:23;;;;;;;3.60;3.40;;;;;;;1.29;100.00;101154.63;6100707;23;20029;-68
2023/11/26 05:04:51;;;;;;;5.50;5.10;;;;;;;1.60;100.00;101203.56;6078732;23;20396;-69
2023/11/26 05:07:19;;;;;;;3.25;3.08;;;;;;;0.91;100.00;101110.94;6102807;23;20089;-68
2023/11/26 05:09:45;;;;;;;3.72;3.53;;;;;;;1.64;100.00;101207.00;6081795;23;20036;-68
2023/11/26 05:12:11;;;;;;;3.53;3.33;;;;;;;1.64;100.00;101213.00;6108001;23;20029;-69
2023/11/26 05:14:38;;;;;;;3.60;3.40;;;;;;;0.70;100.00;101053.38;6080249;23;20560;-68
2023/11/26 05:17:04;;;;;;;3.63;3.42;;;;;;;1.70;100.00;101217.28;6104960;23;20017;-68
2023/11/26 05:19:31;;;;;;;4.20;3.80;;;;;;;1.72;100.00;101218.13;6079617;23;20037;-68
2023/11/26 05:21:57;;;;;;;3.85;3.65;;;;;;;1.68;100.00;101196.59;6109337;23;20029;-71
2023/11/26 05:24:24;;;;;;;3.90;3.70;;;;;;;1.82;100.00;101216.34;6093679;23;20355;-69
2023/11/26 05:26:50;;;;;;;5.97;5.68;;;;;;;1.83;100.00;101211.16;6101650;23;20020;-68
2023/11/26 05:29:17;;;;;;;4.00;3.75;;;;;;;1.65;100.00;101193.19;6095226;23;20406;-69
2023/11/26 05:31:44;;;;;;;3.63;3.42;;;;;;;1.30;100.00;101137.38;6104925;23;20029;-68
2023/11/26 05:34:10;;;;;;;3.40;3.25;;;;;;;1.77;100.00;101225.00;6089429;23;20111;-70
2023/11/26 05:36:40;;;;;;;3.70;3.50;;;;;;;1.28;100.00;101144.28;6111729;23;20041;-70
2023/11/26 05:39:08;;;;;;;4.05;3.85;;;;;;;1.72;100.00;101212.97;6101512;23;20036;-68
2023/11/26 05:41:34;;;;;;;3.17;3.08;;;;;;;1.84;100.00;101232.72;6079906;23;20028;-69
2023/11/26 05:44:01;;;;;;;3.80;3.60;;;;;;;1.80;100.00;101224.09;6100919;23;20100;-69
2023/11/26 05:46:27;;;;;;;4.78;3.88;;;;;;;1.18;100.00;101110.78;6085497;23;20036;-68
2023/11/26 05:48:54;;;;;;;5.57;5.28;;;;;;;1.98;100.00;101230.88;6101092;23;20057;-70
2023/11/26 05:51:21;;;;;;;4.15;3.95;;;;;;;1.69;100.00;101171.59;6088781;23;20444;-69
2023/11/26 05:53:48;;;;;;;3.70;3.50;;;;;;;1.62;100.00;101152.66;6083471;23;20081;-68
2023/11/26 05:56:14;;;;;;;4.80;4.50;;;;;;;2.10;100.00;101227.31;6084626;23;20127;-69
2023/11/26 05:58:41;;;;;;;4.38;4.13;;;;;;;2.27;100.00;101243.59;6107968;23;20029;-69
2023/11/26 06:01:07;;;;;;;5.50;4.78;;;;;;;1.88;100.00;101170.56;6082687;23;20624;-69
2023/11/26 06:03:36;;;;;;;5.90;5.40;;;;;;;2.05;100.00;101201.50;6108676;23;20451;-69
2023/11/26 06:06:04;;;;;;;3.97;3.72;;;;;;;2.02;100.00;101205.81;6107744;23;20413;-69
2023/11/26 06:08:30;;;;;;;4.88;4.43;;;;;;;2.49;100.00;101257.19;6101664;23;20017;-69
2023/11/26 06:10:56;;;;;;;11.90;6.47;;;;;;;2.53;100.00;101258.03;6083788;23;20010;-70
2023/11/26 06:13:23;;;;;;;5.15;4.82;;;;;;;2.59;100.00;101260.56;6106848;23;20490;-69
2023/11/26 06:15:49;;;;;;;4.35;4.05;;;;;;;2.45;100.00;101228.75;6055551;23;20338;-70
2023/11/26 06:18:16;;;;;;;4.30;4.10;;;;;;;2.65;100.00;101257.03;6107433;23;20025;-69
2023/11/26 06:20:43;;;;;;;5.93;5.38;;;;;;;2.31;100.00;101190.88;6080902;23;20022;-69
2023/11/26 06:23:09;;;;;;;4.50;4.25;;;;;;;2.67;100.00;101253.56;6112500;23;20354;-70
2023/11/26 06:25:36;;;;;;;5.43;5.00;;;;;;;2.65;100.00;101250.13;6081135;23;20602;-69
2023/11/26 06:28:02;;;;;;;5.05;4.75;;;;;;;2.59;100.00;101252.78;6109835;23;20059;-69
2023/11/26 06:30:29;;;;;;;4.05;3.83;;;;;;;2.55;100.00;101251.94;6086717;23;20028;-68
2023/11/26 06:32:56;;;;;;;6.35;5.93;;;;;;;2.26;100.00;101171.06;6102551;23;20022;-69
2023/11/26 06:35:22;;;;;;;5.47;4.97;;;;;;;2.69;100.00;101245.78;6089572;23;20069;-69
2023/11/26 06:37:48;;;;;;;5.18;4.85;;;;;;;2.68;100.00;101236.25;6101450;23;20478;-69
2023/11/26 06:40:15;;;;;;;4.63;4.32;;;;;;;2.67;100.00;101232.81;6087862;23;20026;-69
2023/11/26 06:42:41;;;;;;;5.72;5.13;;;;;;;2.69;100.00;101244.03;6105789;23;20511;-68
2023/11/26 06:45:09;;;;;;;5.57;5.22;;;;;;;2.71;100.00;101252.66;6061091;23;21300;-69
2023/11/26 06:47:36;;;;;;;6.63;5.07;;;;;;;2.66;100.00;101241.44;6109394;23;20033;-68
2023/11/26 06:50:03;;;;;;;13.93;4.82;;;;;;;2.67;100.00;101245.78;6081659;23;20041;-69
2023/11/26 06:52:30;;;;;;;4.05;3.80;;;;;;;2.69;100.00;101245.78;6103456;23;20142;-69
2023/11/26 06:54:57;;;;;;;7.05;6.32;;;;;;;2.10;100.00;101154.84;6078213;23;21009;-69
2023/11/26 06:57:23;;;;;;;4.38;4.13;;;;;;;2.26;100.00;101182.28;6107076;23;20033;-69
2023/11/26 06:59:50;;;;;;;11.68;6.40;;;;;;;2.26;100.00;101187.47;6087967;23;20055;-68
2023/11/26 07:02:16;;;;;;;6.63;5.00;;;;;;;2.54;100.00;101239.84;6100790;23;20015;-70
2023/11/26 07:04:43;;;;;;;8.10;5.60;;;;;;;2.55;100.00;101240.72;6105475;23;20040;-68
2023/11/26 07:07:10;;;;;;;5.13;4.85;;;;;;;2.55;100.00;101239.00;6075118;23;20021;-70
2023/11/26 07:09:36;;;;;;;5.45;5.15;;;;;;;2.55;100.00;101244.16;6106697;23;20364;-70
2023/11/26 07:12:03;;;;;;;4.70;4.40;;;;;;;2.49;100.00;101240.78;6106595;23;20058;-71
2023/11/26 07:14:29;;;;;;;5.00;4.47;;;;;;;2.22;100.00;101201.31;6083773;23;20284;-68
2023/11/26 07:16:58;;;;;;;7.28;6.70;;;;;;;2.52;100.00;101251.97;6103339;23;20395;-68
2023/11/26 07:19:25;;;;;;;4.47;4.18;;;;;;;2.54;100.00;101246.78;6083930;23;20052;-67
2023/11/26 07:21:51;;;;;;;4.47;4.18;;;;;;;2.35;100.00;101209.84;6107881;23;20017;-68
2023/11/26 07:24:17;;;;;;;5.03;4.72;;;;;;;1.24;100.00;101026.25;6087861;23;20085;-68
2023/11/26 07:26:44;;;;;;;6.28;5.88;;;;;;;2.54;100.00;101247.63;6101130;23;20029;-68
2023/11/26 07:29:11;;;;;;;5.60;5.15;;;;;;;2.55;100.00;101241.56;6105376;23;20026;-68
2023/11/26 07:31:37;;;;;;;4.97;4.68;;;;;;;2.56;100.00;101243.28;6086033;23;20026;-68
2023/11/26 07:34:05;;;;;;;5.25;4.88;;;;;;;2.57;100.00;101244.16;6108085;23;20069;-68
2023/11/26 07:36:32;;;;;;;5.95;5.45;;;;;;;2.57;100.00;101241.56;6052291;23;20793;-68
2023/11/26 07:38:58;;;;;;;6.50;5.90;;;;;;;1.98;100.00;101151.50;6099288;23;20156;-68
2023/11/26 07:41:26;;;;;;;6.18;4.47;;;;;;;2.60;100.00;101244.13;6105052;23;20025;-69
2023/11/26 07:43:54;;;;;;;5.97;5.43;;;;;;;2.64;100.00;101255.31;6098871;23;20049;-68
2023/11/26 07:46:21;;;;;;;5.25;4.95;;;;;;;2.33;100.00;101209.84;6080259;23;20128;-70
2023/11/26 07:48:49;;;;;;;7.22;6.63;;;;;;;2.33;100.00;101202.09;6101990;23;20036;-73
2023/11/26 07:51:15;;;;;;;5.43;4.50;;;;;;;2.80;100.00;101267.22;6079606;23;20017;-70
2023/11/26 07:53:42;;;;;;;6.47;5.72;;;;;;;2.86;100.00;101264.56;6099846;23;20041;-67
2023/11/26 07:56:10;;;;;;;13.73;5.38;;;;;;;2.93;100.00;101273.16;6100363;23;20365;-68
2023/11/26 07:58:39;;;;;;;5.22;4.72;;;;;;;3.03;100.00;101273.88;6076951;23;20169;-70
2023/11/26 08:01:07;;;;;;;6.50;4.88;;;;;;;3.06;100.00;101269.53;6099568;23;20085;-68
2023/11/26 08:03:34;;;;;;;5.88;5.43;;;;;;;3.14;100.00;101278.06;6088623;23;20293;-68
2023/11/26 08:06:06;;;;;;;6.30;5.80;;;;;;;3.17;100.00;101265.06;6106427;23;20241;-68
2023/11/26 08:08:36;;;;;;;7.25;5.30;;;;;;;3.28;100.00;101279.63;6067368;23;20022;-68
2023/11/26 08:11:04;;;;;;;4.88;4.57;;;;;;;3.01;100.00;101229.84;6079704;23;20029;-68
2023/11/26 08:13:33;;;;;;;6.53;5.60;;;;;;;3.42;100.00;101276.88;6103259;23;20029;-68
2023/11/26 08:16:00;;;;;;;6.10;5.70;;;;;;;3.48;100.00;101275.03;6106201;23;20029;-68
2023/11/26 08:18:29;;;;;;;8.48;5.15;;;;;;;2.87;100.00;101161.75;6108265;23;20040;-68
2023/11/26 08:20:58;;;;;;;6.55;6.03;;;;;;;3.60;100.00;101272.28;6102438;23;20014;-67
2023/11/26 08:23:26;;;;;;;9.30;5.20;;;;;;;3.67;100.00;101278.25;6085887;23;20410;-69
2023/11/26 08:25:56;;;;;;;7.20;6.47;;;;;;;3.74;100.00;101279.00;6103840;23;20257;-69
2023/11/26 08:28:36;;;;;;;5.70;5.20;;;;;;;3.31;100.00;101188.81;6083892;23;20401;-71
2023/11/26 08:31:02;;;;;;;7.00;6.30;;;;;;;3.90;100.00;101272.72;6098338;23;20428;-69
2023/11/26 08:33:36;;;;;;;4.43;4.13;;;;;;;3.91;100.00;101266.66;6077927;23;20037;-68
2023/11/26 08:36:04;;;;;;;5.50;4.97;;;;;;;4.04;100.00;101267.31;6104732;23;20033;-68
2023/11/26 08:38:33;;;;;;;6.90;5.72;;;;;;;4.15;100.00;101274.91;6072386;23;20113;-68
2023/11/26 08:41:04;;;;;;;5.30;4.95;;;;;;;3.90;100.00;101222.53;6099864;23;20495;-68
2023/11/26 08:43:33;;;;;;;17.75;6.45;;;;;;;4.34;100.00;101270.28;6080741;23;20557;-69
2023/11/26 08:46:03;;;;;;;8.07;7.28;;;;;;;4.41;100.00;101271.91;6101138;23;20071;-69
2023/11/26 08:48:30;;;;;;;4.88;4.43;;;;;;;3.91;100.00;101174.88;6108040;23;20037;-69
2023/11/26 08:50:57;;;;;;;5.97;5.47;;;;;;;4.51;100.00;101262.16;6077162;23;20649;-68
2023/11/26 08:53:24;;;;;;;7.13;6.38;;;;;;;4.18;100.00;101202.13;6105391;23;20044;-70
2023/11/26 08:55:51;;;;;;;5.28;4.97;;;;;;;4.62;100.00;101243.81;6089142;23;20014;-67
2023/11/26 08:58:17;;;;;;;5.50;5.10;;;;;;;4.77;100.00;101241.75;6112030;23;20412;-68
2023/11/26 09:00:44;;;;;;;7.05;6.55;;;;;;;4.29;100.00;101153.44;6067423;23;20008;-67
2023/11/26 09:03:11;;;;;;;9.13;7.40;;;;;;;4.90;100.00;101216.38;6076435;23;20778;-67
2023/11/26 09:05:41;;;;;;;11.98;6.32;;;;;;;4.71;100.00;101169.09;6105239;23;20074;-68
2023/11/26 09:08:07;;;;;;;8.70;5.35;;;;;;;4.86;100.00;101182.66;6105914;23;20052;-68
2023/11/26 09:10:34;;;;;;;6.28;5.82;;;;;;;5.02;100.00;101188.41;6089549;23;20018;-67
2023/11/26 09:13:01;;;;;;;7.53;6.05;;;;;;;4.62;100.00;101103.44;6101827;23;20304;-69
2023/11/26 09:15:28;;;;;;;6.50;5.85;;;;;;;4.45;100.00;101063.06;6091383;23;20035;-70
2023/11/26 09:17:55;;;;;;;6.07;5.57;;;;;;;5.20;100.00;101155.00;6112052;23;20373;-68
2023/11/26 09:20:21;;;;;;;7.30;6.68;;;;;;;5.00;100.00;101097.38;6077174;23;20021;-68
2023/11/26 09:22:48;;;;;;;7.47;6.85;;;;;;;5.39;100.00;101139.84;6107298;23;20053;-68
2023/11/26 09:25:14;;;;;;;6.88;6.22;;;;;;;5.42;100.00;101117.25;6104718;23;20085;-68
2023/11/26 09:27:41;;;;;;;7.55;6.85;;;;;;;5.26;100.00;101059.50;6108683;23;20449;-68
2023/11/26 09:30:08;;;;;;;9.00;6.70;;;;;;;5.39;100.00;101073.91;6055962;23;20291;-70
2023/11/26 09:32:35;;;;;;;8.15;6.32;;;;;;;5.66;100.00;101103.63;6076304;23;20022;-70
2023/11/26 09:35:02;;;;;;;10.68;7.35;;;;;;;5.68;100.00;101086.19;6054541;23;20398;-69
2023/11/26 09:37:29;;;;;;;6.95;6.32;;;;;;;5.70;100.00;101086.16;6102900;23;20013;-69
2023/11/26 09:39:56;;;;;;;15.65;8.13;;;;;;;4.59;100.00;100880.78;6084236;23;20108;-70
2023/11/26 09:42:24;;;;;;;6.45;5.85;;;;;;;5.67;100.00;101053.22;6111604;23;20017;-71
2023/11/26 09:44:51;;;;;;;8.95;8.05;;;;;;;5.83;100.00;101065.84;6102475;23;20524;-69
2023/11/26 09:47:18;;;;;;;10.23;6.93;;;;;;;5.44;100.00;101000.94;6107205;23;20472;-68
2023/11/26 09:49:45;;;;;;;4.82;4.53;;;;;;;5.21;100.00;100937.31;6107291;23;20572;-70
2023/11/26 09:52:14;;;;;;;5.72;5.28;;;;;;;5.69;100.00;101007.19;6111471;23;20019;-69
2023/11/26 09:54:41;;;;;;;8.13;6.68;;;;;;;5.81;100.00;101024.22;6109038;23;20056;-68
2023/11/26 09:57:09;;;;;;;8.90;7.20;;;;;;;5.82;100.00;101018.13;6106022;23;20028;-69
2023/11/26 09:59:36;;;;;;;6.82;6.22;;;;;;;5.84;100.00;101007.69;6093384;23;20040;-68
2023/11/26 10:02:06;;;;;;;9.82;7.05;;;;;;;5.85;100.00;100996.34;6104878;23;20029;-68
2023/11/26 10:04:47;;;;;;;7.78;6.22;;;;;;;5.93;100.00;100996.97;6111126;23;20667;-68
2023/11/26 10:07:15;;;;;;;9.02;5.95;;;;;;;6.01;100.00;100986.38;6080922;23;20140;-68
2023/11/26 10:09:59;;;;;;;7.65;6.97;;;;;;;6.00;100.00;100964.69;6110420;23;20026;-67
2023/11/26 10:12:25;;;;;;;5.60;5.10;;;;;;;6.13;100.00;100965.19;6106654;23;21199;-68
2023/11/26 10:15:06;;;;;;;7.85;6.57;;;;;;;5.57;100.00;100895.56;6102723;23;20296;-68
2023/11/26 10:17:34;;;;;;;21.70;7.03;;;;;;;6.10;100.00;100963.53;6107584;23;20053;-68
2023/11/26 10:20:18;;;;;;;6.57;5.97;;;;;;;6.08;100.00;100943.63;6105410;23;20040;-69
2023/11/26 10:22:45;;;;;;;7.38;6.93;;;;;;;6.15;100.00;100942.53;6087919;23;20022;-70
2023/11/26 10:25:12;;;;;;;8.43;7.68;;;;;;;6.09;100.00;100919.25;6104702;23;20023;-70
2023/11/26 10:27:39;;;;;;;7.03;6.35;;;;;;;6.13;100.00;100913.06;6106787;23;20062;-69
2023/11/26 10:30:09;;;;;;;6.43;5.93;;;;;;;5.51;100.00;100802.91;6092238;23;20057;-67
2023/11/26 10:33:01;;;;;;;10.65;5.97;;;;;;;6.20;100.00;100906.78;6080948;23;20025;-68
2023/11/26 10:35:48;;;;;;;6.10;5.68;;;;;;;6.28;100.00;100915.22;6089103;23;20083;-68
2023/11/26 10:38:20;;;;;;;6.25;5.07;;;;;;;6.31;100.00;100904.66;6104940;23;20670;-68
2023/11/26 10:40:47;;;;;;;9.18;8.20;;;;;;;6.34;100.00;100898.53;6103117;23;20455;-68
2023/11/26 10:43:14;;;;;;;5.60;5.30;;;;;;;6.29;100.00;100893.44;6079358;23;20229;-68
2023/11/26 10:45:44;;;;;;;6.60;6.10;;;;;;;6.38;100.00;100892.31;6077072;23;20013;-68
2023/11/26 10:48:14;;;;;;;8.23;6.13;;;;;;;6.14;100.00;100841.81;6075084;23;20088;-68
2023/11/26 10:51:05;;;;;;;6.55;6.07;;;;;;;6.51;100.00;100909.25;6106034;23;20125;-68
2023/11/26 10:54:09;;;;;;;7.32;6.30;;;;;;;6.51;100.00;100891.00;6110029;23;20283;-69
2023/11/26 10:56:41;;;;;;;7.55;6.07;;;;;;;6.52;100.00;100860.59;6083830;23;20122;-68
2023/11/26 10:59:08;;;;;;;6.30;5.43;;;;;;;6.48;100.00;100856.38;6111225;23;20026;-68
2023/11/26 11:01:39;;;;;;;7.82;7.13;;;;;;;5.86;100.00;100748.88;6088270;23;20887;-68
2023/11/26 11:04:14;;;;;;;9.13;6.07;;;;;;;6.52;100.00;100856.22;6112439;23;20389;-67
2023/11/26 11:06:43;;;;;;;6.75;5.85;;;;;;;5.94;100.00;100770.31;6082334;23;20503;-68
2023/11/26 11:09:13;;;;;;;12.70;7.20;;;;;;;6.41;100.00;100858.31;6090609;23;20165;-68
2023/11/26 11:12:01;;;;;;;7.07;6.38;;;;;;;6.40;100.00;100869.66;6107835;23;20366;-68
2023/11/26 11:14:29;;;;;;;7.18;6.25;;;;;;;6.46;100.00;100879.03;6104798;23;20065;-68
2023/11/26 11:17:46;;;;;;;25.83;24.02;;;;;;;6.26;100.00;100862.28;6053493;23;20418;-66
2023/11/26 11:21:09;;;;;;;5.78;5.38;;;;;;;6.47;100.00;100880.75;6103576;23;20029;-68
2023/11/26 11:23:37;;;;;;;6.32;5.85;;;;;;;5.85;100.00;100788.84;6086520;23;20164;-71
2023/11/26 11:26:05;;;;;;;8.15;6.72;;;;;;;6.22;100.00;100854.63;6100851;23;20029;-68
2023/11/26 11:28:38;;;;;;;6.68;5.95;;;;;;;6.53;100.00;100894.41;6107127;23;20087;-68
2023/11/26 11:31:05;;;;;;;6.22;5.65;;;;;;;6.36;100.00;100891.53;6061021;23;20326;-68